sensor_id;sensor_type;location;lat;lon;timestamp;P1;durP1;ratioP1;P2;durP2;ratioP2
74972;SDS011;63529;56.320;43.990;2022-10-26T00:00:25;2.35;;;0.90;;
74972;SDS011;63529;56.320;43.990;2022-10-26T00:02:53;2.83;;;0.80;;
74972;SDS011;63529;56.320;43.990;2022-10-26T00:05:20;2.13;;;0.70;;
74972;SDS011;63529;56.320;43.990;2022-10-26T00:07:47;1.45;;;0.50;;
74972;SDS011;63529;56.320;43.990;2022-10-26T00:10:14;1.02;;;0.60;;
74972;SDS011;63529;56.320;43.990;2022-10-26T00:12:40;1.92;;;0.73;;
74972;SDS011;63529;56.320;43.990;2022-10-26T00:15:06;2.67;;;0.90;;
74972;SDS011;63529;56.320;43.990;2022-10-26T00:17:33;2.08;;;0.50;;
74972;SDS011;63529;56.320;43.990;2022-10-26T00:19:59;4.65;;;0.80;;
74972;SDS011;63529;56.320;43.990;2022-10-26T00:22:29;0.95;;;0.30;;
74972;SDS011;63529;56.320;43.990;2022-10-26T00:24:54;0.95;;;0.60;;
74972;SDS011;63529;56.320;43.990;2022-10-26T00:27:20;0.60;;;0.60;;
74972;SDS011;63529;56.320;43.990;2022-10-26T00:29:46;5.63;;;0.80;;
74972;SDS011;63529;56.320;43.990;2022-10-26T00:32:12;0.60;;;0.60;;
74972;SDS011;63529;56.320;43.990;2022-10-26T00:34:38;0.65;;;0.40;;
74972;SDS011;63529;56.320;43.990;2022-10-26T00:37:04;0.93;;;0.40;;
74972;SDS011;63529;56.320;43.990;2022-10-26T00:39:29;0.88;;;0.43;;
74972;SDS011;63529;56.320;43.990;2022-10-26T00:41:55;1.50;;;0.60;;
74972;SDS011;63529;56.320;43.990;2022-10-26T00:47:16;0.85;;;0.52;;
74972;SDS011;63529;56.320;43.990;2022-10-26T00:49:48;0.57;;;0.57;;
74972;SDS011;63529;56.320;43.990;2022-10-26T00:52:18;1.02;;;0.50;;
74972;SDS011;63529;56.320;43.990;2022-10-26T00:54:45;1.40;;;0.50;;
74972;SDS011;63529;56.320;43.990;2022-10-26T00:57:11;1.52;;;0.70;;
74972;SDS011;63529;56.320;43.990;2022-10-26T00:59:40;2.90;;;0.80;;
74972;SDS011;63529;56.320;43.990;2022-10-26T01:02:07;2.42;;;0.70;;
74972;SDS011;63529;56.320;43.990;2022-10-26T01:04:33;4.00;;;0.65;;
74972;SDS011;63529;56.320;43.990;2022-10-26T01:07:00;2.28;;;0.70;;
74972;SDS011;63529;56.320;43.990;2022-10-26T01:09:28;1.90;;;0.60;;
74972;SDS011;63529;56.320;43.990;2022-10-26T01:11:55;1.98;;;0.80;;
74972;SDS011;63529;56.320;43.990;2022-10-26T01:14:21;2.67;;;0.88;;
74972;SDS011;63529;56.320;43.990;2022-10-26T01:22:26;3.55;;;0.75;;
74972;SDS011;63529;56.320;43.990;2022-10-26T01:28:01;0.50;;;0.50;;
74972;SDS011;63529;56.320;43.990;2022-10-26T01:41:22;4.90;;;0.70;;
74972;SDS011;63529;56.320;43.990;2022-10-26T01:43:53;2.55;;;0.60;;
74972;SDS011;63529;56.320;43.990;2022-10-26T01:46:24;2.03;;;0.82;;
74972;SDS011;63529;56.320;43.990;2022-10-26T01:48:54;3.00;;;1.00;;
74972;SDS011;63529;56.320;43.990;2022-10-26T01:51:25;1.88;;;0.93;;
74972;SDS011;63529;56.320;43.990;2022-10-26T01:53:53;2.45;;;0.88;;
74972;SDS011;63529;56.320;43.990;2022-10-26T01:56:22;4.25;;;1.23;;
74972;SDS011;63529;56.320;43.990;2022-10-26T02:04:23;2.88;;;0.90;;
74972;SDS011;63529;56.320;43.990;2022-10-26T02:07:12;2.10;;;0.80;;
74972;SDS011;63529;56.320;43.990;2022-10-26T02:09:47;2.33;;;1.10;;
74972;SDS011;63529;56.320;43.990;2022-10-26T02:12:49;2.38;;;1.08;;
74972;SDS011;63529;56.320;43.990;2022-10-26T02:15:53;1.52;;;1.10;;
74972;SDS011;63529;56.320;43.990;2022-10-26T02:20:59;3.13;;;1.67;;
74972;SDS011;63529;56.320;43.990;2022-10-26T02:23:31;3.42;;;1.15;;
74972;SDS011;63529;56.320;43.990;2022-10-26T02:26:01;1.88;;;1.00;;
74972;SDS011;63529;56.320;43.990;2022-10-26T02:28:35;2.17;;;1.38;;
74972;SDS011;63529;56.320;43.990;2022-10-26T02:31:05;8.38;;;1.60;;
74972;SDS011;63529;56.320;43.990;2022-10-26T02:33:34;5.18;;;1.70;;
74972;SDS011;63529;56.320;43.990;2022-10-26T02:36:06;3.38;;;1.10;;
74972;SDS011;63529;56.320;43.990;2022-10-26T02:38:35;3.45;;;1.38;;
74972;SDS011;63529;56.320;43.990;2022-10-26T02:41:04;3.60;;;1.48;;
74972;SDS011;63529;56.320;43.990;2022-10-26T02:43:33;2.50;;;1.20;;
74972;SDS011;63529;56.320;43.990;2022-10-26T02:46:10;2.65;;;1.30;;
74972;SDS011;63529;56.320;43.990;2022-10-26T02:48:40;6.65;;;1.65;;
74972;SDS011;63529;56.320;43.990;2022-10-26T02:56:50;2.10;;;1.10;;
74972;SDS011;63529;56.320;43.990;2022-10-26T02:59:20;11.27;;;1.90;;
74972;SDS011;63529;56.320;43.990;2022-10-26T03:01:49;2.17;;;1.38;;
74972;SDS011;63529;56.320;43.990;2022-10-26T03:04:16;5.32;;;1.38;;
74972;SDS011;63529;56.320;43.990;2022-10-26T03:06:45;1.17;;;0.90;;
74972;SDS011;63529;56.320;43.990;2022-10-26T03:09:17;1.45;;;1.10;;
74972;SDS011;63529;56.320;43.990;2022-10-26T03:11:43;3.08;;;1.30;;
74972;SDS011;63529;56.320;43.990;2022-10-26T03:14:09;4.82;;;1.42;;
74972;SDS011;63529;56.320;43.990;2022-10-26T03:16:34;2.67;;;1.45;;
74972;SDS011;63529;56.320;43.990;2022-10-26T03:19:00;2.60;;;1.50;;
74972;SDS011;63529;56.320;43.990;2022-10-26T03:21:26;1.98;;;1.40;;
74972;SDS011;63529;56.320;43.990;2022-10-26T03:23:53;2.53;;;1.50;;
74972;SDS011;63529;56.320;43.990;2022-10-26T03:26:19;6.47;;;1.75;;
74972;SDS011;63529;56.320;43.990;2022-10-26T03:28:45;4.82;;;1.45;;
74972;SDS011;63529;56.320;43.990;2022-10-26T03:31:11;5.13;;;1.38;;
74972;SDS011;63529;56.320;43.990;2022-10-26T03:33:36;3.63;;;1.80;;
74972;SDS011;63529;56.320;43.990;2022-10-26T03:36:02;4.53;;;1.60;;
74972;SDS011;63529;56.320;43.990;2022-10-26T03:38:28;1.95;;;1.42;;
74972;SDS011;63529;56.320;43.990;2022-10-26T03:40:54;3.08;;;1.30;;
74972;SDS011;63529;56.320;43.990;2022-10-26T03:43:20;3.45;;;1.42;;
74972;SDS011;63529;56.320;43.990;2022-10-26T03:45:46;2.05;;;1.40;;
74972;SDS011;63529;56.320;43.990;2022-10-26T03:48:12;2.22;;;1.10;;
74972;SDS011;63529;56.320;43.990;2022-10-26T03:50:38;4.03;;;1.42;;
74972;SDS011;63529;56.320;43.990;2022-10-26T03:53:04;3.60;;;1.13;;
74972;SDS011;63529;56.320;43.990;2022-10-26T03:55:30;8.75;;;1.90;;
74972;SDS011;63529;56.320;43.990;2022-10-26T03:57:56;6.78;;;2.15;;
74972;SDS011;63529;56.320;43.990;2022-10-26T04:00:22;4.20;;;1.17;;
74972;SDS011;63529;56.320;43.990;2022-10-26T04:02:54;3.50;;;1.40;;
74972;SDS011;63529;56.320;43.990;2022-10-26T04:05:22;4.47;;;1.48;;
74972;SDS011;63529;56.320;43.990;2022-10-26T04:07:53;1.63;;;0.98;;
74972;SDS011;63529;56.320;43.990;2022-10-26T04:10:20;5.15;;;1.30;;
74972;SDS011;63529;56.320;43.990;2022-10-26T04:12:46;2.10;;;1.40;;
74972;SDS011;63529;56.320;43.990;2022-10-26T04:15:13;4.45;;;1.40;;
74972;SDS011;63529;56.320;43.990;2022-10-26T04:17:39;3.90;;;1.20;;
74972;SDS011;63529;56.320;43.990;2022-10-26T04:20:05;1.90;;;1.00;;
74972;SDS011;63529;56.320;43.990;2022-10-26T04:22:32;4.63;;;1.20;;
74972;SDS011;63529;56.320;43.990;2022-10-26T04:24:58;2.78;;;0.93;;
74972;SDS011;63529;56.320;43.990;2022-10-26T04:27:23;14.00;;;1.10;;
74972;SDS011;63529;56.320;43.990;2022-10-26T04:29:49;3.97;;;1.20;;
74972;SDS011;63529;56.320;43.990;2022-10-26T04:32:15;5.20;;;1.65;;
74972;SDS011;63529;56.320;43.990;2022-10-26T04:34:41;3.00;;;0.85;;
74972;SDS011;63529;56.320;43.990;2022-10-26T04:37:07;5.50;;;1.55;;
74972;SDS011;63529;56.320;43.990;2022-10-26T04:39:33;7.63;;;1.55;;
74972;SDS011;63529;56.320;43.990;2022-10-26T04:41:59;24.73;;;2.45;;
74972;SDS011;63529;56.320;43.990;2022-10-26T04:44:24;5.55;;;1.38;;
74972;SDS011;63529;56.320;43.990;2022-10-26T04:46:50;2.03;;;1.02;;
74972;SDS011;63529;56.320;43.990;2022-10-26T04:49:16;2.38;;;1.40;;
74972;SDS011;63529;56.320;43.990;2022-10-26T04:51:42;2.58;;;0.93;;
74972;SDS011;63529;56.320;43.990;2022-10-26T04:54:08;2.17;;;0.98;;
74972;SDS011;63529;56.320;43.990;2022-10-26T04:56:34;4.53;;;1.75;;
74972;SDS011;63529;56.320;43.990;2022-10-26T04:58:59;7.55;;;1.83;;
74972;SDS011;63529;56.320;43.990;2022-10-26T05:01:25;17.67;;;3.00;;
74972;SDS011;63529;56.320;43.990;2022-10-26T05:03:52;10.43;;;2.25;;
74972;SDS011;63529;56.320;43.990;2022-10-26T05:06:18;5.13;;;1.90;;
74972;SDS011;63529;56.320;43.990;2022-10-26T05:08:45;7.75;;;2.53;;
74972;SDS011;63529;56.320;43.990;2022-10-26T05:11:11;11.05;;;1.98;;
74972;SDS011;63529;56.320;43.990;2022-10-26T05:13:37;10.90;;;2.35;;
74972;SDS011;63529;56.320;43.990;2022-10-26T05:16:03;5.10;;;1.70;;
74972;SDS011;63529;56.320;43.990;2022-10-26T05:18:29;4.40;;;1.25;;
74972;SDS011;63529;56.320;43.990;2022-10-26T05:20:55;6.38;;;1.63;;
74972;SDS011;63529;56.320;43.990;2022-10-26T05:23:21;10.77;;;2.10;;
74972;SDS011;63529;56.320;43.990;2022-10-26T05:25:47;5.85;;;2.03;;
74972;SDS011;63529;56.320;43.990;2022-10-26T05:28:14;9.68;;;2.30;;
74972;SDS011;63529;56.320;43.990;2022-10-26T05:30:42;3.65;;;1.50;;
74972;SDS011;63529;56.320;43.990;2022-10-26T05:33:10;3.33;;;1.55;;
74972;SDS011;63529;56.320;43.990;2022-10-26T05:35:38;5.15;;;1.52;;
74972;SDS011;63529;56.320;43.990;2022-10-26T05:38:14;9.00;;;1.77;;
74972;SDS011;63529;56.320;43.990;2022-10-26T05:40:51;4.93;;;1.60;;
74972;SDS011;63529;56.320;43.990;2022-10-26T05:43:18;7.95;;;1.60;;
74972;SDS011;63529;56.320;43.990;2022-10-26T05:45:45;3.95;;;1.52;;
74972;SDS011;63529;56.320;43.990;2022-10-26T05:48:11;6.50;;;1.77;;
74972;SDS011;63529;56.320;43.990;2022-10-26T05:50:37;2.40;;;1.60;;
74972;SDS011;63529;56.320;43.990;2022-10-26T05:53:03;10.73;;;2.60;;
74972;SDS011;63529;56.320;43.990;2022-10-26T05:55:29;2.67;;;1.50;;
74972;SDS011;63529;56.320;43.990;2022-10-26T05:57:55;4.32;;;1.52;;
74972;SDS011;63529;56.320;43.990;2022-10-26T06:00:22;5.40;;;1.55;;
74972;SDS011;63529;56.320;43.990;2022-10-26T06:05:20;10.02;;;1.30;;
74972;SDS011;63529;56.320;43.990;2022-10-26T06:07:50;3.15;;;1.20;;
74972;SDS011;63529;56.320;43.990;2022-10-26T06:10:17;10.70;;;3.78;;
74972;SDS011;63529;56.320;43.990;2022-10-26T06:12:43;9.32;;;1.63;;
74972;SDS011;63529;56.320;43.990;2022-10-26T06:15:13;2.75;;;1.30;;
74972;SDS011;63529;56.320;43.990;2022-10-26T06:20:42;6.32;;;1.40;;
74972;SDS011;63529;56.320;43.990;2022-10-26T06:28:52;11.30;;;1.52;;
74972;SDS011;63529;56.320;43.990;2022-10-26T06:31:25;8.30;;;2.42;;
74972;SDS011;63529;56.320;43.990;2022-10-26T06:33:52;2.83;;;1.02;;
74972;SDS011;63529;56.320;43.990;2022-10-26T06:36:24;4.80;;;1.25;;
74972;SDS011;63529;56.320;43.990;2022-10-26T06:39:25;3.40;;;1.25;;
74972;SDS011;63529;56.320;43.990;2022-10-26T06:41:44;12.45;;;2.25;;
74972;SDS011;63529;56.320;43.990;2022-10-26T06:44:14;3.08;;;0.98;;
74972;SDS011;63529;56.320;43.990;2022-10-26T06:49:31;2.65;;;1.13;;
74972;SDS011;63529;56.320;43.990;2022-10-26T06:52:04;3.67;;;1.20;;
74972;SDS011;63529;56.320;43.990;2022-10-26T06:54:51;4.38;;;1.40;;
74972;SDS011;63529;56.320;43.990;2022-10-26T06:57:20;4.78;;;1.70;;
74972;SDS011;63529;56.320;43.990;2022-10-26T06:59:51;5.07;;;1.70;;
74972;SDS011;63529;56.320;43.990;2022-10-26T07:02:19;6.80;;;1.35;;
74972;SDS011;63529;56.320;43.990;2022-10-26T07:04:45;4.20;;;1.58;;
74972;SDS011;63529;56.320;43.990;2022-10-26T07:07:12;5.82;;;2.00;;
74972;SDS011;63529;56.320;43.990;2022-10-26T07:09:42;5.07;;;1.77;;
74972;SDS011;63529;56.320;43.990;2022-10-26T07:12:08;6.70;;;1.90;;
74972;SDS011;63529;56.320;43.990;2022-10-26T07:14:34;2.70;;;1.02;;
74972;SDS011;63529;56.320;43.990;2022-10-26T07:16:59;3.45;;;1.10;;
74972;SDS011;63529;56.320;43.990;2022-10-26T07:19:25;3.25;;;1.13;;
74972;SDS011;63529;56.320;43.990;2022-10-26T07:21:55;3.42;;;1.10;;
74972;SDS011;63529;56.320;43.990;2022-10-26T07:24:22;2.60;;;1.60;;
74972;SDS011;63529;56.320;43.990;2022-10-26T07:26:48;2.28;;;0.80;;
74972;SDS011;63529;56.320;43.990;2022-10-26T07:29:14;3.63;;;1.20;;
74972;SDS011;63529;56.320;43.990;2022-10-26T07:31:42;2.85;;;1.25;;
74972;SDS011;63529;56.320;43.990;2022-10-26T07:34:08;1.60;;;1.13;;
74972;SDS011;63529;56.320;43.990;2022-10-26T07:36:34;6.88;;;1.10;;
74972;SDS011;63529;56.320;43.990;2022-10-26T07:39:07;4.55;;;1.85;;
74972;SDS011;63529;56.320;43.990;2022-10-26T07:41:33;6.80;;;1.55;;
74972;SDS011;63529;56.320;43.990;2022-10-26T07:43:59;3.85;;;1.70;;
74972;SDS011;63529;56.320;43.990;2022-10-26T07:46:25;5.45;;;2.20;;
74972;SDS011;63529;56.320;43.990;2022-10-26T07:48:52;4.97;;;1.83;;
74972;SDS011;63529;56.320;43.990;2022-10-26T07:51:19;3.00;;;1.40;;
74972;SDS011;63529;56.320;43.990;2022-10-26T07:53:45;4.97;;;1.80;;
74972;SDS011;63529;56.320;43.990;2022-10-26T07:56:12;2.40;;;1.30;;
74972;SDS011;63529;56.320;43.990;2022-10-26T07:58:38;1.77;;;1.10;;
74972;SDS011;63529;56.320;43.990;2022-10-26T08:01:08;3.55;;;1.27;;
74972;SDS011;63529;56.320;43.990;2022-10-26T08:03:37;1.55;;;1.20;;
74972;SDS011;63529;56.320;43.990;2022-10-26T08:06:03;1.98;;;1.20;;
74972;SDS011;63529;56.320;43.990;2022-10-26T08:08:30;2.80;;;1.20;;
74972;SDS011;63529;56.320;43.990;2022-10-26T08:10:56;1.48;;;0.90;;
74972;SDS011;63529;56.320;43.990;2022-10-26T08:13:22;2.85;;;1.42;;
74972;SDS011;63529;56.320;43.990;2022-10-26T08:15:49;7.55;;;1.40;;
74972;SDS011;63529;56.320;43.990;2022-10-26T08:18:15;2.65;;;1.00;;
74972;SDS011;63529;56.320;43.990;2022-10-26T08:20:41;3.22;;;1.10;;
74972;SDS011;63529;56.320;43.990;2022-10-26T08:23:07;2.58;;;1.02;;
74972;SDS011;63529;56.320;43.990;2022-10-26T08:25:36;3.47;;;1.25;;
74972;SDS011;63529;56.320;43.990;2022-10-26T08:28:02;9.23;;;3.35;;
74972;SDS011;63529;56.320;43.990;2022-10-26T08:30:29;4.38;;;1.10;;
74972;SDS011;63529;56.320;43.990;2022-10-26T08:32:59;2.72;;;1.40;;
74972;SDS011;63529;56.320;43.990;2022-10-26T08:35:26;8.32;;;1.60;;
74972;SDS011;63529;56.320;43.990;2022-10-26T08:37:53;5.30;;;1.40;;
74972;SDS011;63529;56.320;43.990;2022-10-26T08:40:52;3.45;;;1.70;;
74972;SDS011;63529;56.320;43.990;2022-10-26T08:43:19;5.20;;;1.75;;
74972;SDS011;63529;56.320;43.990;2022-10-26T08:45:53;6.72;;;2.22;;
74972;SDS011;63529;56.320;43.990;2022-10-26T08:48:31;5.07;;;1.60;;
74972;SDS011;63529;56.320;43.990;2022-10-26T08:51:02;2.72;;;1.55;;
74972;SDS011;63529;56.320;43.990;2022-10-26T08:53:50;4.07;;;1.90;;
74972;SDS011;63529;56.320;43.990;2022-10-26T08:59:16;4.57;;;1.38;;
74972;SDS011;63529;56.320;43.990;2022-10-26T09:01:53;1.20;;;1.10;;
74972;SDS011;63529;56.320;43.990;2022-10-26T09:04:19;3.95;;;1.60;;
74972;SDS011;63529;56.320;43.990;2022-10-26T09:26:36;3.72;;;1.65;;
74972;SDS011;63529;56.320;43.990;2022-10-26T09:31:47;3.65;;;2.05;;
74972;SDS011;63529;56.320;43.990;2022-10-26T09:34:36;2.60;;;1.70;;
74972;SDS011;63529;56.320;43.990;2022-10-26T09:37:41;2.60;;;1.60;;
74972;SDS011;63529;56.320;43.990;2022-10-26T09:47:58;8.63;;;2.33;;
74972;SDS011;63529;56.320;43.990;2022-10-26T09:50:34;6.35;;;2.40;;
74972;SDS011;63529;56.320;43.990;2022-10-26T09:53:02;3.45;;;2.00;;
74972;SDS011;63529;56.320;43.990;2022-10-26T09:59:03;5.00;;;2.03;;
74972;SDS011;63529;56.320;43.990;2022-10-26T10:01:31;11.05;;;2.33;;
74972;SDS011;63529;56.320;43.990;2022-10-26T10:04:13;7.65;;;1.80;;
74972;SDS011;63529;56.320;43.990;2022-10-26T10:07:23;7.55;;;1.90;;
74972;SDS011;63529;56.320;43.990;2022-10-26T10:09:42;5.18;;;1.25;;
74972;SDS011;63529;56.320;43.990;2022-10-26T10:12:17;8.32;;;1.65;;
74972;SDS011;63529;56.320;43.990;2022-10-26T10:14:54;7.95;;;1.83;;
74972;SDS011;63529;56.320;43.990;2022-10-26T10:17:22;15.52;;;3.03;;
74972;SDS011;63529;56.320;43.990;2022-10-26T10:19:49;14.38;;;2.50;;
74972;SDS011;63529;56.320;43.990;2022-10-26T10:24:58;7.00;;;1.73;;
74972;SDS011;63529;56.320;43.990;2022-10-26T10:27:26;5.70;;;2.17;;
74972;SDS011;63529;56.320;43.990;2022-10-26T10:29:53;7.45;;;1.60;;
74972;SDS011;63529;56.320;43.990;2022-10-26T10:34:57;4.07;;;1.92;;
74972;SDS011;63529;56.320;43.990;2022-10-26T10:37:28;3.85;;;1.45;;
74972;SDS011;63529;56.320;43.990;2022-10-26T10:42:30;4.00;;;1.50;;
74972;SDS011;63529;56.320;43.990;2022-10-26T10:45:12;3.15;;;1.20;;
74972;SDS011;63529;56.320;43.990;2022-10-26T10:48:01;5.20;;;1.42;;
74972;SDS011;63529;56.320;43.990;2022-10-26T10:50:28;3.33;;;1.33;;
74972;SDS011;63529;56.320;43.990;2022-10-26T10:53:14;6.15;;;1.80;;
74972;SDS011;63529;56.320;43.990;2022-10-26T10:58:29;3.05;;;1.80;;
74972;SDS011;63529;56.320;43.990;2022-10-26T11:01:09;7.32;;;1.83;;
74972;SDS011;63529;56.320;43.990;2022-10-26T11:03:44;3.55;;;1.40;;
74972;SDS011;63529;56.320;43.990;2022-10-26T11:06:29;3.55;;;1.42;;
74972;SDS011;63529;56.320;43.990;2022-10-26T11:09:04;3.00;;;1.42;;
74972;SDS011;63529;56.320;43.990;2022-10-26T11:11:56;5.25;;;1.80;;
74972;SDS011;63529;56.320;43.990;2022-10-26T11:14:40;11.90;;;2.20;;
74972;SDS011;63529;56.320;43.990;2022-10-26T11:17:15;11.52;;;2.70;;
74972;SDS011;63529;56.320;43.990;2022-10-26T11:22:20;21.65;;;2.38;;
74972;SDS011;63529;56.320;43.990;2022-10-26T11:24:59;18.35;;;3.97;;
74972;SDS011;63529;56.320;43.990;2022-10-26T11:27:40;38.75;;;8.02;;
74972;SDS011;63529;56.320;43.990;2022-10-26T11:30:13;3.65;;;2.08;;
74972;SDS011;63529;56.320;43.990;2022-10-26T11:35:33;3.38;;;1.63;;
74972;SDS011;63529;56.320;43.990;2022-10-26T11:46:29;21.50;;;2.30;;
74972;SDS011;63529;56.320;43.990;2022-10-26T11:51:53;3.30;;;1.70;;
74972;SDS011;63529;56.320;43.990;2022-10-26T11:54:31;9.60;;;2.53;;
74972;SDS011;63529;56.320;43.990;2022-10-26T11:57:00;6.88;;;1.73;;
74972;SDS011;63529;56.320;43.990;2022-10-26T11:59:34;4.65;;;2.10;;
74972;SDS011;63529;56.320;43.990;2022-10-26T12:02:11;6.95;;;1.60;;
74972;SDS011;63529;56.320;43.990;2022-10-26T12:04:40;7.63;;;1.80;;
74972;SDS011;63529;56.320;43.990;2022-10-26T12:07:12;18.95;;;2.67;;
74972;SDS011;63529;56.320;43.990;2022-10-26T12:10:03;3.75;;;1.40;;
74972;SDS011;63529;56.320;43.990;2022-10-26T12:12:39;7.10;;;2.13;;
74972;SDS011;63529;56.320;43.990;2022-10-26T12:23:18;3.88;;;1.50;;
74972;SDS011;63529;56.320;43.990;2022-10-26T12:25:44;4.97;;;1.40;;
74972;SDS011;63529;56.320;43.990;2022-10-26T12:34:12;12.43;;;2.47;;
74972;SDS011;63529;56.320;43.990;2022-10-26T12:36:49;4.22;;;1.63;;
74972;SDS011;63529;56.320;43.990;2022-10-26T12:39:37;14.35;;;2.30;;
74972;SDS011;63529;56.320;43.990;2022-10-26T12:47:06;6.07;;;1.70;;
74972;SDS011;63529;56.320;43.990;2022-10-26T13:00:26;4.63;;;1.50;;
74972;SDS011;63529;56.320;43.990;2022-10-26T13:08:00;3.45;;;1.23;;
74972;SDS011;63529;56.320;43.990;2022-10-26T13:10:28;2.65;;;1.48;;
74972;SDS011;63529;56.320;43.990;2022-10-26T13:12:58;2.50;;;1.40;;
74972;SDS011;63529;56.320;43.990;2022-10-26T13:15:36;2.42;;;1.10;;
74972;SDS011;63529;56.320;43.990;2022-10-26T13:18:08;6.55;;;1.63;;
74972;SDS011;63529;56.320;43.990;2022-10-26T13:23:39;3.88;;;2.20;;
74972;SDS011;63529;56.320;43.990;2022-10-26T13:26:16;11.38;;;2.30;;
74972;SDS011;63529;56.320;43.990;2022-10-26T13:28:44;2.90;;;1.50;;
74972;SDS011;63529;56.320;43.990;2022-10-26T13:34:04;8.82;;;2.00;;
74972;SDS011;63529;56.320;43.990;2022-10-26T13:39:29;8.25;;;2.13;;
74972;SDS011;63529;56.320;43.990;2022-10-26T13:42:00;7.03;;;1.92;;
74972;SDS011;63529;56.320;43.990;2022-10-26T13:44:28;7.35;;;2.10;;
74972;SDS011;63529;56.320;43.990;2022-10-26T13:50:44;7.13;;;2.50;;
74972;SDS011;63529;56.320;43.990;2022-10-26T13:58:45;6.40;;;2.05;;
74972;SDS011;63529;56.320;43.990;2022-10-26T14:01:18;8.52;;;2.22;;
74972;SDS011;63529;56.320;43.990;2022-10-26T14:03:49;16.45;;;2.40;;
74972;SDS011;63529;56.320;43.990;2022-10-26T14:08:55;6.90;;;2.00;;
74972;SDS011;63529;56.320;43.990;2022-10-26T14:11:29;7.68;;;2.50;;
74972;SDS011;63529;56.320;43.990;2022-10-26T14:14:01;12.20;;;2.47;;
74972;SDS011;63529;56.320;43.990;2022-10-26T14:16:29;7.15;;;2.15;;
74972;SDS011;63529;56.320;43.990;2022-10-26T14:18:57;11.15;;;3.15;;
74972;SDS011;63529;56.320;43.990;2022-10-26T14:21:23;4.43;;;1.85;;
74972;SDS011;63529;56.320;43.990;2022-10-26T14:23:51;11.05;;;2.15;;
74972;SDS011;63529;56.320;43.990;2022-10-26T14:26:26;6.07;;;2.40;;
74972;SDS011;63529;56.320;43.990;2022-10-26T14:28:58;5.70;;;1.95;;
74972;SDS011;63529;56.320;43.990;2022-10-26T14:33:53;8.63;;;2.40;;
74972;SDS011;63529;56.320;43.990;2022-10-26T14:36:22;5.80;;;1.75;;
74972;SDS011;63529;56.320;43.990;2022-10-26T14:38:57;5.63;;;2.50;;
74972;SDS011;63529;56.320;43.990;2022-10-26T14:41:26;9.38;;;2.28;;
74972;SDS011;63529;56.320;43.990;2022-10-26T14:43:54;6.78;;;2.40;;
74972;SDS011;63529;56.320;43.990;2022-10-26T14:46:21;18.60;;;3.58;;
74972;SDS011;63529;56.320;43.990;2022-10-26T14:48:54;15.38;;;3.60;;
74972;SDS011;63529;56.320;43.990;2022-10-26T14:51:26;12.43;;;4.03;;
74972;SDS011;63529;56.320;43.990;2022-10-26T14:56:27;13.10;;;2.22;;
74972;SDS011;63529;56.320;43.990;2022-10-26T14:58:56;12.70;;;3.25;;
74972;SDS011;63529;56.320;43.990;2022-10-26T15:01:27;13.45;;;3.13;;
74972;SDS011;63529;56.320;43.990;2022-10-26T15:03:55;5.72;;;2.50;;
74972;SDS011;63529;56.320;43.990;2022-10-26T15:06:37;9.80;;;2.97;;
74972;SDS011;63529;56.320;43.990;2022-10-26T15:09:05;12.70;;;3.35;;
74972;SDS011;63529;56.320;43.990;2022-10-26T15:11:32;13.98;;;3.17;;
74972;SDS011;63529;56.320;43.990;2022-10-26T15:13:59;16.30;;;3.13;;
74972;SDS011;63529;56.320;43.990;2022-10-26T15:16:26;15.85;;;3.45;;
74972;SDS011;63529;56.320;43.990;2022-10-26T15:18:58;8.63;;;1.98;;
74972;SDS011;63529;56.320;43.990;2022-10-26T15:21:33;9.75;;;2.25;;
74972;SDS011;63529;56.320;43.990;2022-10-26T15:24:27;5.97;;;2.47;;
74972;SDS011;63529;56.320;43.990;2022-10-26T15:26:53;9.48;;;1.90;;
74972;SDS011;63529;56.320;43.990;2022-10-26T15:29:36;4.43;;;1.75;;
74972;SDS011;63529;56.320;43.990;2022-10-26T15:32:04;5.15;;;1.67;;
74972;SDS011;63529;56.320;43.990;2022-10-26T15:34:45;4.78;;;1.92;;
74972;SDS011;63529;56.320;43.990;2022-10-26T15:37:15;4.03;;;1.52;;
74972;SDS011;63529;56.320;43.990;2022-10-26T15:39:40;14.13;;;2.88;;
74972;SDS011;63529;56.320;43.990;2022-10-26T15:42:11;10.70;;;3.20;;
74972;SDS011;63529;56.320;43.990;2022-10-26T15:44:38;10.20;;;1.90;;
74972;SDS011;63529;56.320;43.990;2022-10-26T15:47:04;5.82;;;1.65;;
74972;SDS011;63529;56.320;43.990;2022-10-26T15:49:29;8.35;;;1.88;;
74972;SDS011;63529;56.320;43.990;2022-10-26T15:51:55;5.78;;;1.77;;
74972;SDS011;63529;56.320;43.990;2022-10-26T15:54:21;5.05;;;1.65;;
74972;SDS011;63529;56.320;43.990;2022-10-26T15:56:47;3.38;;;1.40;;
74972;SDS011;63529;56.320;43.990;2022-10-26T15:59:14;4.88;;;1.55;;
74972;SDS011;63529;56.320;43.990;2022-10-26T16:01:44;3.88;;;1.88;;
74972;SDS011;63529;56.320;43.990;2022-10-26T16:04:10;9.35;;;1.98;;
74972;SDS011;63529;56.320;43.990;2022-10-26T16:06:37;8.00;;;3.33;;
74972;SDS011;63529;56.320;43.990;2022-10-26T16:09:06;16.60;;;3.83;;
74972;SDS011;63529;56.320;43.990;2022-10-26T16:11:35;6.80;;;4.05;;
74972;SDS011;63529;56.320;43.990;2022-10-26T16:14:00;19.27;;;5.53;;
74972;SDS011;63529;56.320;43.990;2022-10-26T16:16:26;14.68;;;5.75;;
74972;SDS011;63529;56.320;43.990;2022-10-26T16:18:53;7.70;;;3.67;;
74972;SDS011;63529;56.320;43.990;2022-10-26T16:21:20;10.15;;;4.57;;
74972;SDS011;63529;56.320;43.990;2022-10-26T16:23:48;9.70;;;4.43;;
74972;SDS011;63529;56.320;43.990;2022-10-26T16:26:18;11.90;;;3.70;;
74972;SDS011;63529;56.320;43.990;2022-10-26T16:28:44;12.25;;;5.18;;
74972;SDS011;63529;56.320;43.990;2022-10-26T16:31:11;18.08;;;4.43;;
74972;SDS011;63529;56.320;43.990;2022-10-26T16:33:39;6.15;;;2.70;;
74972;SDS011;63529;56.320;43.990;2022-10-26T16:36:05;6.88;;;3.30;;
74972;SDS011;63529;56.320;43.990;2022-10-26T16:38:32;6.00;;;2.90;;
74972;SDS011;63529;56.320;43.990;2022-10-26T16:41:08;6.75;;;2.53;;
74972;SDS011;63529;56.320;43.990;2022-10-26T16:43:36;8.32;;;2.95;;
74972;SDS011;63529;56.320;43.990;2022-10-26T16:46:09;11.15;;;3.22;;
74972;SDS011;63529;56.320;43.990;2022-10-26T16:48:35;8.93;;;2.63;;
74972;SDS011;63529;56.320;43.990;2022-10-26T16:53:35;14.85;;;2.95;;
74972;SDS011;63529;56.320;43.990;2022-10-26T16:56:06;7.00;;;2.42;;
74972;SDS011;63529;56.320;43.990;2022-10-26T16:58:37;9.57;;;2.38;;
74972;SDS011;63529;56.320;43.990;2022-10-26T17:01:03;3.60;;;1.98;;
74972;SDS011;63529;56.320;43.990;2022-10-26T17:03:30;4.22;;;1.70;;
74972;SDS011;63529;56.320;43.990;2022-10-26T17:06:00;5.22;;;2.22;;
74972;SDS011;63529;56.320;43.990;2022-10-26T17:08:28;7.43;;;2.42;;
74972;SDS011;63529;56.320;43.990;2022-10-26T17:11:00;10.68;;;2.28;;
74972;SDS011;63529;56.320;43.990;2022-10-26T17:13:28;3.35;;;1.65;;
74972;SDS011;63529;56.320;43.990;2022-10-26T17:15:59;19.02;;;3.15;;
74972;SDS011;63529;56.320;43.990;2022-10-26T17:18:25;4.22;;;2.05;;
74972;SDS011;63529;56.320;43.990;2022-10-26T17:20:51;5.30;;;2.20;;
74972;SDS011;63529;56.320;43.990;2022-10-26T17:23:17;3.72;;;2.03;;
74972;SDS011;63529;56.320;43.990;2022-10-26T17:25:43;9.75;;;2.13;;
74972;SDS011;63529;56.320;43.990;2022-10-26T17:28:09;6.97;;;2.58;;
74972;SDS011;63529;56.320;43.990;2022-10-26T17:30:35;6.32;;;2.42;;
74972;SDS011;63529;56.320;43.990;2022-10-26T17:33:02;5.65;;;2.42;;
74972;SDS011;63529;56.320;43.990;2022-10-26T17:35:28;10.40;;;3.03;;
74972;SDS011;63529;56.320;43.990;2022-10-26T17:37:54;7.38;;;2.78;;
74972;SDS011;63529;56.320;43.990;2022-10-26T17:40:19;10.63;;;2.53;;
74972;SDS011;63529;56.320;43.990;2022-10-26T17:42:45;5.40;;;2.25;;
74972;SDS011;63529;56.320;43.990;2022-10-26T17:45:11;4.78;;;2.10;;